sensor_id;sensor_type;location;lat;lon;timestamp;temperature;humidity
51655;DHT22;37732;53.106;7.030;2022-09-30T00:02:16;9.60;99.90
51655;DHT22;37732;53.106;7.030;2022-09-30T00:04:42;9.30;99.90
51655;DHT22;37732;53.106;7.030;2022-09-30T00:07:07;8.60;99.90
51655;DHT22;37732;53.106;7.030;2022-09-30T00:09:33;8.60;99.90
51655;DHT22;37732;53.106;7.030;2022-09-30T00:11:59;8.90;99.90
51655;DHT22;37732;53.106;7.030;2022-09-30T00:14:24;8.60;99.90
51655;DHT22;37732;53.106;7.030;2022-09-30T00:16:50;9.50;99.90
51655;DHT22;37732;53.106;7.030;2022-09-30T00:19:16;8.50;99.90
51655;DHT22;37732;53.106;7.030;2022-09-30T00:21:42;8.80;99.90
51655;DHT22;37732;53.106;7.030;2022-09-30T00:24:08;9.20;99.90
51655;DHT22;37732;53.106;7.030;2022-09-30T00:26:35;8.60;99.90
51655;DHT22;37732;53.106;7.030;2022-09-30T00:29:02;8.40;99.90
51655;DHT22;37732;53.106;7.030;2022-09-30T00:31:30;8.40;99.90
51655;DHT22;37732;53.106;7.030;2022-09-30T00:33:57;8.40;99.90
51655;DHT22;37732;53.106;7.030;2022-09-30T00:39:10;8.90;99.90
51655;DHT22;37732;53.106;7.030;2022-09-30T00:41:36;9.20;99.90
51655;DHT22;37732;53.106;7.030;2022-09-30T00:49:58;8.00;99.90
51655;DHT22;37732;53.106;7.030;2022-09-30T00:52:24;8.10;99.90
51655;DHT22;37732;53.106;7.030;2022-09-30T00:54:52;8.10;99.90
51655;DHT22;37732;53.106;7.030;2022-09-30T00:57:19;7.90;99.90
51655;DHT22;37732;53.106;7.030;2022-09-30T00:59:47;8.60;99.90
51655;DHT22;37732;53.106;7.030;2022-09-30T01:02:16;8.10;99.90
51655;DHT22;37732;53.106;7.030;2022-09-30T01:04:42;9.10;99.90
51655;DHT22;37732;53.106;7.030;2022-09-30T01:07:10;9.20;99.90
51655;DHT22;37732;53.106;7.030;2022-09-30T01:09:39;8.00;99.90
51655;DHT22;37732;53.106;7.030;2022-09-30T01:12:08;9.10;99.90
51655;DHT22;37732;53.106;7.030;2022-09-30T01:14:36;9.00;99.90
51655;DHT22;37732;53.106;7.030;2022-09-30T01:36:10;9.30;99.90
51655;DHT22;37732;53.106;7.030;2022-09-30T01:43:56;8.00;99.90
51655;DHT22;37732;53.106;7.030;2022-09-30T01:46:39;7.90;99.90
51655;DHT22;37732;53.106;7.030;2022-09-30T01:52:07;8.00;99.90
51655;DHT22;37732;53.106;7.030;2022-09-30T01:54:38;8.00;99.90
51655;DHT22;37732;53.106;7.030;2022-09-30T01:57:19;7.90;99.90
51655;DHT22;37732;53.106;7.030;2022-09-30T01:59:57;7.90;99.90
51655;DHT22;37732;53.106;7.030;2022-09-30T02:02:27;8.50;99.90
51655;DHT22;37732;53.106;7.030;2022-09-30T02:04:58;7.80;99.90
51655;DHT22;37732;53.106;7.030;2022-09-30T02:07:51;7.70;99.90
51655;DHT22;37732;53.106;7.030;2022-09-30T02:10:26;7.70;99.90
51655;DHT22;37732;53.106;7.030;2022-09-30T02:15:54;7.50;99.90
51655;DHT22;37732;53.106;7.030;2022-09-30T02:20:49;8.00;99.90
51655;DHT22;37732;53.106;7.030;2022-09-30T02:23:22;8.40;99.90
51655;DHT22;37732;53.106;7.030;2022-09-30T02:25:58;7.90;99.90
51655;DHT22;37732;53.106;7.030;2022-09-30T02:28:32;8.30;99.90
51655;DHT22;37732;53.106;7.030;2022-09-30T02:30:59;7.30;99.90
51655;DHT22;37732;53.106;7.030;2022-09-30T02:33:39;8.70;99.90
51655;DHT22;37732;53.106;7.030;2022-09-30T02:38:53;7.30;99.90
51655;DHT22;37732;53.106;7.030;2022-09-30T02:41:23;7.50;99.90
51655;DHT22;37732;53.106;7.030;2022-09-30T02:43:52;7.20;99.90
51655;DHT22;37732;53.106;7.030;2022-09-30T02:46:46;7.90;99.90
51655;DHT22;37732;53.106;7.030;2022-09-30T02:49:35;7.30;99.90
51655;DHT22;37732;53.106;7.030;2022-09-30T03:00:10;7.20;99.90
51655;DHT22;37732;53.106;7.030;2022-09-30T03:02:37;8.60;99.90
51655;DHT22;37732;53.106;7.030;2022-09-30T03:05:03;8.20;99.90
51655;DHT22;37732;53.106;7.030;2022-09-30T03:07:29;7.20;99.90
51655;DHT22;37732;53.106;7.030;2022-09-30T03:09:56;7.90;99.90
51655;DHT22;37732;53.106;7.030;2022-09-30T03:17:43;7.50;99.90
51655;DHT22;37732;53.106;7.030;2022-09-30T03:28:41;7.10;99.90
51655;DHT22;37732;53.106;7.030;2022-09-30T03:31:56;8.00;99.90
51655;DHT22;37732;53.106;7.030;2022-09-30T03:34:16;7.00;99.90
51655;DHT22;37732;53.106;7.030;2022-09-30T03:39:52;7.00;99.90
51655;DHT22;37732;53.106;7.030;2022-09-30T03:42:39;7.40;99.90
51655;DHT22;37732;53.106;7.030;2022-09-30T03:45:22;7.10;99.90
51655;DHT22;37732;53.106;7.030;2022-09-30T03:47:52;7.00;99.90
51655;DHT22;37732;53.106;7.030;2022-09-30T03:50:21;8.50;99.90
51655;DHT22;37732;53.106;7.030;2022-09-30T03:52:48;8.30;99.90
51655;DHT22;37732;53.106;7.030;2022-09-30T03:55:14;8.40;99.90
51655;DHT22;37732;53.106;7.030;2022-09-30T03:57:41;7.90;99.90
51655;DHT22;37732;53.106;7.030;2022-09-30T04:00:10;8.00;99.90
51655;DHT22;37732;53.106;7.030;2022-09-30T04:02:37;6.80;99.90
51655;DHT22;37732;53.106;7.030;2022-09-30T04:05:04;7.40;99.90
51655;DHT22;37732;53.106;7.030;2022-09-30T04:07:32;6.70;99.90
51655;DHT22;37732;53.106;7.030;2022-09-30T04:14:51;6.50;99.90
51655;DHT22;37732;53.106;7.030;2022-09-30T04:17:16;7.10;99.90
51655;DHT22;37732;53.106;7.030;2022-09-30T04:19:43;6.70;99.90
51655;DHT22;37732;53.106;7.030;2022-09-30T04:22:09;6.80;99.90
51655;DHT22;37732;53.106;7.030;2022-09-30T04:24:35;6.70;99.90
51655;DHT22;37732;53.106;7.030;2022-09-30T04:27:01;7.90;99.90
51655;DHT22;37732;53.106;7.030;2022-09-30T04:29:27;6.40;99.90
51655;DHT22;37732;53.106;7.030;2022-09-30T04:31:53;7.30;99.90
51655;DHT22;37732;53.106;7.030;2022-09-30T04:34:19;7.10;99.90
51655;DHT22;37732;53.106;7.030;2022-09-30T04:36:45;6.30;99.90
51655;DHT22;37732;53.106;7.030;2022-09-30T04:39:10;7.40;99.90
51655;DHT22;37732;53.106;7.030;2022-09-30T04:41:36;7.20;99.90
51655;DHT22;37732;53.106;7.030;2022-09-30T04:44:03;6.80;99.90
51655;DHT22;37732;53.106;7.030;2022-09-30T04:46:33;6.20;99.90
51655;DHT22;37732;53.106;7.030;2022-09-30T04:49:02;6.30;99.90
51655;DHT22;37732;53.106;7.030;2022-09-30T04:51:30;6.30;99.90
51655;DHT22;37732;53.106;7.030;2022-09-30T04:53:56;7.70;99.90
51655;DHT22;37732;53.106;7.030;2022-09-30T04:56:23;7.00;99.90
51655;DHT22;37732;53.106;7.030;2022-09-30T04:58:51;7.30;99.90
51655;DHT22;37732;53.106;7.030;2022-09-30T05:01:20;7.20;99.90
51655;DHT22;37732;53.106;7.030;2022-09-30T05:03:46;6.10;99.90
51655;DHT22;37732;53.106;7.030;2022-09-30T05:06:13;6.00;99.90
51655;DHT22;37732;53.106;7.030;2022-09-30T05:08:39;6.20;99.90
51655;DHT22;37732;53.106;7.030;2022-09-30T05:11:08;7.10;99.90
51655;DHT22;37732;53.106;7.030;2022-09-30T05:13:37;7.40;99.90
51655;DHT22;37732;53.106;7.030;2022-09-30T05:16:03;6.00;99.90
51655;DHT22;37732;53.106;7.030;2022-09-30T05:18:29;6.00;99.90
51655;DHT22;37732;53.106;7.030;2022-09-30T05:20:56;6.70;99.90
51655;DHT22;37732;53.106;7.030;2022-09-30T05:23:23;6.40;99.90
51655;DHT22;37732;53.106;7.030;2022-09-30T05:25:50;6.70;99.90
51655;DHT22;37732;53.106;7.030;2022-09-30T05:28:16;7.00;99.90
51655;DHT22;37732;53.106;7.030;2022-09-30T05:30:43;6.00;99.90
51655;DHT22;37732;53.106;7.030;2022-09-30T05:33:10;7.30;99.90
51655;DHT22;37732;53.106;7.030;2022-09-30T05:35:39;6.30;99.90
51655;DHT22;37732;53.106;7.030;2022-09-30T05:38:10;6.00;99.90
51655;DHT22;37732;53.106;7.030;2022-09-30T05:40:37;6.00;99.90
51655;DHT22;37732;53.106;7.030;2022-09-30T05:43:05;6.00;99.90
51655;DHT22;37732;53.106;7.030;2022-09-30T05:45:32;6.00;99.90
51655;DHT22;37732;53.106;7.030;2022-09-30T05:47:59;6.00;99.90
51655;DHT22;37732;53.106;7.030;2022-09-30T05:50:26;5.90;99.90
51655;DHT22;37732;53.106;7.030;2022-09-30T05:52:51;7.40;99.90
51655;DHT22;37732;53.106;7.030;2022-09-30T05:55:19;7.40;99.90
51655;DHT22;37732;53.106;7.030;2022-09-30T05:57:50;6.80;99.90
51655;DHT22;37732;53.106;7.030;2022-09-30T06:00:17;5.90;99.90
51655;DHT22;37732;53.106;7.030;2022-09-30T06:02:43;5.80;99.90
51655;DHT22;37732;53.106;7.030;2022-09-30T06:05:10;5.90;99.90
51655;DHT22;37732;53.106;7.030;2022-09-30T06:07:36;6.90;99.90
51655;DHT22;37732;53.106;7.030;2022-09-30T06:10:05;7.10;99.90
51655;DHT22;37732;53.106;7.030;2022-09-30T06:12:33;5.90;99.90
51655;DHT22;37732;53.106;7.030;2022-09-30T06:15:00;6.60;99.90
51655;DHT22;37732;53.106;7.030;2022-09-30T06:17:26;7.30;99.90
51655;DHT22;37732;53.106;7.030;2022-09-30T06:19:52;5.90;99.90
51655;DHT22;37732;53.106;7.030;2022-09-30T06:22:18;7.20;99.90
51655;DHT22;37732;53.106;7.030;2022-09-30T06:24:44;6.80;99.90
51655;DHT22;37732;53.106;7.030;2022-09-30T06:27:11;6.10;99.90
51655;DHT22;37732;53.106;7.030;2022-09-30T06:29:38;7.40;99.90
51655;DHT22;37732;53.106;7.030;2022-09-30T06:32:05;6.50;99.90
51655;DHT22;37732;53.106;7.030;2022-09-30T06:34:32;6.20;99.90
51655;DHT22;37732;53.106;7.030;2022-09-30T06:36:58;7.60;99.90
51655;DHT22;37732;53.106;7.030;2022-09-30T06:39:25;6.50;99.90
51655;DHT22;37732;53.106;7.030;2022-09-30T06:41:52;6.60;99.90
51655;DHT22;37732;53.106;7.030;2022-09-30T06:44:18;7.40;99.90
51655;DHT22;37732;53.106;7.030;2022-09-30T06:46:44;7.60;99.90
51655;DHT22;37732;53.106;7.030;2022-09-30T06:49:10;6.60;99.90
51655;DHT22;37732;53.106;7.030;2022-09-30T06:51:36;8.00;99.90
51655;DHT22;37732;53.106;7.030;2022-09-30T06:54:02;7.50;99.90
51655;DHT22;37732;53.106;7.030;2022-09-30T06:56:29;6.70;99.90
51655;DHT22;37732;53.106;7.030;2022-09-30T06:58:56;7.90;99.90
51655;DHT22;37732;53.106;7.030;2022-09-30T07:01:21;6.90;99.90
51655;DHT22;37732;53.106;7.030;2022-09-30T07:03:49;8.10;99.90
51655;DHT22;37732;53.106;7.030;2022-09-30T07:06:22;7.00;99.90
51655;DHT22;37732;53.106;7.030;2022-09-30T07:08:48;7.80;99.90
51655;DHT22;37732;53.106;7.030;2022-09-30T07:11:14;7.30;99.90
51655;DHT22;37732;53.106;7.030;2022-09-30T07:13:43;7.30;99.90
51655;DHT22;37732;53.106;7.030;2022-09-30T07:16:11;7.30;99.90
51655;DHT22;37732;53.106;7.030;2022-09-30T07:18:40;8.10;99.90
51655;DHT22;37732;53.106;7.030;2022-09-30T07:21:12;7.50;99.90
51655;DHT22;37732;53.106;7.030;2022-09-30T07:23:40;8.10;99.90
51655;DHT22;37732;53.106;7.030;2022-09-30T07:26:13;8.20;99.90
51655;DHT22;37732;53.106;7.030;2022-09-30T07:28:40;8.50;99.90
51655;DHT22;37732;53.106;7.030;2022-09-30T07:31:28;7.90;99.90
51655;DHT22;37732;53.106;7.030;2022-09-30T07:33:54;8.10;99.90
51655;DHT22;37732;53.106;7.030;2022-09-30T07:36:25;8.50;99.90
51655;DHT22;37732;53.106;7.030;2022-09-30T07:38:55;8.40;99.90
51655;DHT22;37732;53.106;7.030;2022-09-30T07:41:26;8.30;99.90
51655;DHT22;37732;53.106;7.030;2022-09-30T07:43:59;8.30;99.90
51655;DHT22;37732;53.106;7.030;2022-09-30T07:46:28;8.30;99.90
51655;DHT22;37732;53.106;7.030;2022-09-30T07:48:55;9.00;99.90
51655;DHT22;37732;53.106;7.030;2022-09-30T07:51:30;8.40;99.90
51655;DHT22;37732;53.106;7.030;2022-09-30T07:54:01;8.40;99.90
51655;DHT22;37732;53.106;7.030;2022-09-30T07:56:28;8.60;99.90
51655;DHT22;37732;53.106;7.030;2022-09-30T07:58:57;8.90;99.90
51655;DHT22;37732;53.106;7.030;2022-09-30T08:01:27;10.00;99.90
51655;DHT22;37732;53.106;7.030;2022-09-30T08:03:58;9.40;99.90
51655;DHT22;37732;53.106;7.030;2022-09-30T08:06:25;9.60;99.90
51655;DHT22;37732;53.106;7.030;2022-09-30T08:08:56;9.80;99.90
51655;DHT22;37732;53.106;7.030;2022-09-30T08:11:23;10.10;99.90
51655;DHT22;37732;53.106;7.030;2022-09-30T08:13:53;10.80;99.90
51655;DHT22;37732;53.106;7.030;2022-09-30T08:16:21;10.60;99.90
51655;DHT22;37732;53.106;7.030;2022-09-30T08:18:47;10.80;99.90
51655;DHT22;37732;53.106;7.030;2022-09-30T08:21:13;11.00;99.90
51655;DHT22;37732;53.106;7.030;2022-09-30T08:23:39;11.00;99.90
51655;DHT22;37732;53.106;7.030;2022-09-30T08:26:09;11.20;99.90
51655;DHT22;37732;53.106;7.030;2022-09-30T08:28:39;11.30;99.90
51655;DHT22;37732;53.106;7.030;2022-09-30T08:31:21;11.40;99.90
51655;DHT22;37732;53.106;7.030;2022-09-30T08:33:47;11.70;99.90
51655;DHT22;37732;53.106;7.030;2022-09-30T08:36:19;11.90;99.90
51655;DHT22;37732;53.106;7.030;2022-09-30T08:38:45;12.00;99.90
51655;DHT22;37732;53.106;7.030;2022-09-30T08:51:41;12.20;99.90
51655;DHT22;37732;53.106;7.030;2022-09-30T08:54:15;12.30;99.90
51655;DHT22;37732;53.106;7.030;2022-09-30T08:56:44;12.30;99.90
51655;DHT22;37732;53.106;7.030;2022-09-30T09:01:46;12.50;99.90
51655;DHT22;37732;53.106;7.030;2022-09-30T09:04:13;12.60;99.90
51655;DHT22;37732;53.106;7.030;2022-09-30T09:06:59;12.70;99.90
51655;DHT22;37732;53.106;7.030;2022-09-30T09:15:03;13.00;99.90
51655;DHT22;37732;53.106;7.030;2022-09-30T09:20:27;13.20;99.90
51655;DHT22;37732;53.106;7.030;2022-09-30T09:22:57;13.30;99.90
51655;DHT22;37732;53.106;7.030;2022-09-30T09:25:25;13.40;99.90
51655;DHT22;37732;53.106;7.030;2022-09-30T09:28:00;13.50;99.90
51655;DHT22;37732;53.106;7.030;2022-09-30T09:30:49;13.50;99.90
51655;DHT22;37732;53.106;7.030;2022-09-30T09:33:21;13.60;99.90
51655;DHT22;37732;53.106;7.030;2022-09-30T09:41:19;13.70;99.90
51655;DHT22;37732;53.106;7.030;2022-09-30T09:44:23;13.70;99.90
51655;DHT22;37732;53.106;7.030;2022-09-30T09:46:53;13.90;99.90
51655;DHT22;37732;53.106;7.030;2022-09-30T09:49:28;14.00;99.90
51655;DHT22;37732;53.106;7.030;2022-09-30T09:54:51;14.30;99.90
51655;DHT22;37732;53.106;7.030;2022-09-30T09:57:25;14.30;99.90
51655;DHT22;37732;53.106;7.030;2022-09-30T10:00:21;14.30;99.90
51655;DHT22;37732;53.106;7.030;2022-09-30T10:03:12;14.40;99.90
51655;DHT22;37732;53.106;7.030;2022-09-30T10:05:44;14.50;99.90
51655;DHT22;37732;53.106;7.030;2022-09-30T10:08:20;14.60;99.90
51655;DHT22;37732;53.106;7.030;2022-09-30T10:10:49;14.70;99.90
51655;DHT22;37732;53.106;7.030;2022-09-30T10:13:21;14.80;99.90
51655;DHT22;37732;53.106;7.030;2022-09-30T10:15:49;14.80;99.90
51655;DHT22;37732;53.106;7.030;2022-09-30T10:18:28;15.00;99.90
51655;DHT22;37732;53.106;7.030;2022-09-30T10:20:59;15.10;99.90
51655;DHT22;37732;53.106;7.030;2022-09-30T10:23:30;15.10;99.90
51655;DHT22;37732;53.106;7.030;2022-09-30T10:28:58;15.00;99.90
51655;DHT22;37732;53.106;7.030;2022-09-30T10:31:40;15.20;99.90
51655;DHT22;37732;53.106;7.030;2022-09-30T10:34:29;15.30;99.90
51655;DHT22;37732;53.106;7.030;2022-09-30T10:37:02;15.30;99.90
51655;DHT22;37732;53.106;7.030;2022-09-30T10:39:35;15.40;99.90
51655;DHT22;37732;53.106;7.030;2022-09-30T10:42:10;15.50;99.90
51655;DHT22;37732;53.106;7.030;2022-09-30T10:44:47;15.60;99.90
51655;DHT22;37732;53.106;7.030;2022-09-30T10:47:16;15.80;99.90
51655;DHT22;37732;53.106;7.030;2022-09-30T10:52:25;15.90;99.90
51655;DHT22;37732;53.106;7.030;2022-09-30T10:54:55;15.90;99.90
51655;DHT22;37732;53.106;7.030;2022-09-30T10:57:28;16.10;99.90
51655;DHT22;37732;53.106;7.030;2022-09-30T11:07:57;16.50;99.90
51655;DHT22;37732;53.106;7.030;2022-09-30T11:10:55;16.50;99.90
51655;DHT22;37732;53.106;7.030;2022-09-30T11:13:56;16.40;99.90
51655;DHT22;37732;53.106;7.030;2022-09-30T11:19:26;16.50;99.90
51655;DHT22;37732;53.106;7.030;2022-09-30T11:24:43;16.70;99.90
51655;DHT22;37732;53.106;7.030;2022-09-30T11:38:25;16.90;99.90
51655;DHT22;37732;53.106;7.030;2022-09-30T11:41:06;16.80;99.90
51655;DHT22;37732;53.106;7.030;2022-09-30T11:57:30;16.70;99.90
51655;DHT22;37732;53.106;7.030;2022-09-30T12:00:01;16.80;99.90
51655;DHT22;37732;53.106;7.030;2022-09-30T12:02:38;16.60;99.90
51655;DHT22;37732;53.106;7.030;2022-09-30T12:05:13;16.40;99.90
51655;DHT22;37732;53.106;7.030;2022-09-30T12:10:28;16.20;99.90
51655;DHT22;37732;53.106;7.030;2022-09-30T12:13:02;16.20;99.90
51655;DHT22;37732;53.106;7.030;2022-09-30T12:15:32;16.40;99.90
51655;DHT22;37732;53.106;7.030;2022-09-30T12:18:10;16.40;99.90
51655;DHT22;37732;53.106;7.030;2022-09-30T12:20:57;16.30;99.90
51655;DHT22;37732;53.106;7.030;2022-09-30T12:23:29;16.40;99.90
51655;DHT22;37732;53.106;7.030;2022-09-30T12:25:59;16.50;99.90
51655;DHT22;37732;53.106;7.030;2022-09-30T12:28:35;16.50;99.90
51655;DHT22;37732;53.106;7.030;2022-09-30T12:34:45;16.60;99.90
51655;DHT22;37732;53.106;7.030;2022-09-30T12:45:44;17.10;99.90
51655;DHT22;37732;53.106;7.030;2022-09-30T12:48:16;17.30;99.90
51655;DHT22;37732;53.106;7.030;2022-09-30T12:50:49;17.30;99.90
51655;DHT22;37732;53.106;7.030;2022-09-30T12:55:49;17.20;99.90
51655;DHT22;37732;53.106;7.030;2022-09-30T12:58:23;17.20;99.90
51655;DHT22;37732;53.106;7.030;2022-09-30T13:01:11;17.30;99.90
51655;DHT22;37732;53.106;7.030;2022-09-30T13:06:09;17.30;99.90
51655;DHT22;37732;53.106;7.030;2022-09-30T13:08:42;17.20;99.90
51655;DHT22;37732;53.106;7.030;2022-09-30T13:14:31;17.30;99.90
51655;DHT22;37732;53.106;7.030;2022-09-30T13:19:33;17.50;99.90
51655;DHT22;37732;53.106;7.030;2022-09-30T13:33:05;17.20;99.90
51655;DHT22;37732;53.106;7.030;2022-09-30T13:35:50;17.20;99.90
51655;DHT22;37732;53.106;7.030;2022-09-30T13:38:30;17.00;99.90
51655;DHT22;37732;53.106;7.030;2022-09-30T13:41:02;16.80;99.90
51655;DHT22;37732;53.106;7.030;2022-09-30T13:44:12;16.70;99.90
51655;DHT22;37732;53.106;7.030;2022-09-30T13:46:46;16.60;99.90
51655;DHT22;37732;53.106;7.030;2022-09-30T13:52:23;16.70;99.90
51655;DHT22;37732;53.106;7.030;2022-09-30T13:54:51;16.70;99.90
51655;DHT22;37732;53.106;7.030;2022-09-30T13:57:25;16.90;99.90
51655;DHT22;37732;53.106;7.030;2022-09-30T14:00:03;17.10;99.90
51655;DHT22;37732;53.106;7.030;2022-09-30T14:11:35;17.00;99.90
51655;DHT22;37732;53.106;7.030;2022-09-30T14:22:30;16.90;99.90
51655;DHT22;37732;53.106;7.030;2022-09-30T14:24:58;16.80;99.90
51655;DHT22;37732;53.106;7.030;2022-09-30T14:35:03;16.40;99.90
51655;DHT22;37732;53.106;7.030;2022-09-30T14:37:32;16.40;99.90
51655;DHT22;37732;53.106;7.030;2022-09-30T14:39:59;16.40;99.90
51655;DHT22;37732;53.106;7.030;2022-09-30T14:42:31;16.40;99.90
51655;DHT22;37732;53.106;7.030;2022-09-30T14:45:02;16.60;99.90
51655;DHT22;37732;53.106;7.030;2022-09-30T14:47:33;16.60;99.90
51655;DHT22;37732;53.106;7.030;2022-09-30T14:50:00;16.60;99.90
51655;DHT22;37732;53.106;7.030;2022-09-30T14:52:41;16.60;99.90
51655;DHT22;37732;53.106;7.030;2022-09-30T14:57:50;16.60;99.90
51655;DHT22;37732;53.106;7.030;2022-09-30T15:02:45;16.40;99.90
51655;DHT22;37732;53.106;7.030;2022-09-30T15:05:15;16.30;99.90
51655;DHT22;37732;53.106;7.030;2022-09-30T15:07:43;16.20;99.90
51655;DHT22;37732;53.106;7.030;2022-09-30T15:10:18;16.10;99.90
51655;DHT22;37732;53.106;7.030;2022-09-30T15:12:47;16.10;99.90
51655;DHT22;37732;53.106;7.030;2022-09-30T15:15:35;16.00;99.90
51655;DHT22;37732;53.106;7.030;2022-09-30T15:18:21;16.00;99.90
51655;DHT22;37732;53.106;7.030;2022-09-30T15:20:48;15.90;99.90
51655;DHT22;37732;53.106;7.030;2022-09-30T15:23:18;15.90;99.90
51655;DHT22;37732;53.106;7.030;2022-09-30T15:25:45;15.90;99.90
51655;DHT22;37732;53.106;7.030;2022-09-30T15:28:11;15.80;99.90
51655;DHT22;37732;53.106;7.030;2022-09-30T15:30:37;15.80;99.90
51655;DHT22;37732;53.106;7.030;2022-09-30T15:33:04;15.80;99.90
51655;DHT22;37732;53.106;7.030;2022-09-30T15:35:32;15.70;99.90
51655;DHT22;37732;53.106;7.030;2022-09-30T15:38:23;15.70;99.90
51655;DHT22;37732;53.106;7.030;2022-09-30T15:41:09;15.70;99.90
51655;DHT22;37732;53.106;7.030;2022-09-30T15:43:46;15.70;99.90
51655;DHT22;37732;53.106;7.030;2022-09-30T15:46:28;15.70;99.90
51655;DHT22;37732;53.106;7.030;2022-09-30T15:49:04;15.60;99.90
51655;DHT22;37732;53.106;7.030;2022-09-30T15:56:41;15.50;99.90
51655;DHT22;37732;53.106;7.030;2022-09-30T15:59:09;15.40;99.90
51655;DHT22;37732;53.106;7.030;2022-09-30T16:01:43;15.30;99.90
51655;DHT22;37732;53.106;7.030;2022-09-30T16:15:09;15.10;99.90
51655;DHT22;37732;53.106;7.030;2022-09-30T16:17:38;15.00;99.90
51655;DHT22;37732;53.106;7.030;2022-09-30T16:25:15;14.80;99.90
51655;DHT22;37732;53.106;7.030;2022-09-30T16:27:41;14.70;99.90
51655;DHT22;37732;53.106;7.030;2022-09-30T16:30:13;14.60;99.90
51655;DHT22;37732;53.106;7.030;2022-09-30T16:32:42;14.50;99.90
51655;DHT22;37732;53.106;7.030;2022-09-30T16:35:18;14.40;99.90
51655;DHT22;37732;53.106;7.030;2022-09-30T16:37:44;14.40;99.90
51655;DHT22;37732;53.106;7.030;2022-09-30T16:40:21;14.30;99.90
51655;DHT22;37732;53.106;7.030;2022-09-30T16:42:48;14.30;99.90
51655;DHT22;37732;53.106;7.030;2022-09-30T16:45:14;14.20;99.90
51655;DHT22;37732;53.106;7.030;2022-09-30T16:47:40;14.20;99.90
51655;DHT22;37732;53.106;7.030;2022-09-30T16:50:37;14.10;99.90
51655;DHT22;37732;53.106;7.030;2022-09-30T16:53:04;14.10;99.90
51655;DHT22;37732;53.106;7.030;2022-09-30T16:55:30;14.00;99.90
51655;DHT22;37732;53.106;7.030;2022-09-30T16:57:57;14.00;99.90
51655;DHT22;37732;53.106;7.030;2022-09-30T17:00:25;13.90;99.90
51655;DHT22;37732;53.106;7.030;2022-09-30T17:02:52;13.90;99.90
51655;DHT22;37732;53.106;7.030;2022-09-30T17:05:22;13.80;99.90
51655;DHT22;37732;53.106;7.030;2022-09-30T17:07:51;13.70;99.90
51655;DHT22;37732;53.106;7.030;2022-09-30T17:10:24;13.60;99.90
51655;DHT22;37732;53.106;7.030;2022-09-30T17:12:50;13.60;99.90
51655;DHT22;37732;53.106;7.030;2022-09-30T17:15:18;13.50;99.90
51655;DHT22;37732;53.106;7.030;2022-09-30T17:17:44;13.50;99.90
51655;DHT22;37732;53.106;7.030;2022-09-30T17:20:10;13.30;99.90
51655;DHT22;37732;53.106;7.030;2022-09-30T17:22:37;13.30;99.90
51655;DHT22;37732;53.106;7.030;2022-09-30T17:25:03;13.20;99.90
51655;DHT22;37732;53.106;7.030;2022-09-30T17:27:29;13.10;99.90
51655;DHT22;37732;53.106;7.030;2022-09-30T17:29:55;13.00;99.90
51655;DHT22;37732;53.106;7.030;2022-09-30T17:32:20;12.90;99.90
51655;DHT22;37732;53.106;7.030;2022-09-30T17:34:47;12.80;99.90
51655;DHT22;37732;53.106;7.030;2022-09-30T17:37:13;12.70;99.90
51655;DHT22;37732;53.106;7.030;2022-09-30T17:39:40;12.60;99.90
51655;DHT22;37732;53.106;7.030;2022-09-30T17:42:12;12.60;99.90
51655;DHT22;37732;53.106;7.030;2022-09-30T17:45:11;12.60;99.90
51655;DHT22;37732;53.106;7.030;2022-09-30T17:47:36;12.40;99.90
51655;DHT22;37732;53.106;7.030;2022-09-30T17:50:04;12.40;99.90
51655;DHT22;37732;53.106;7.030;2022-09-30T17:52:30;12.40;99.90
51655;DHT22;37732;53.106;7.030;2022-09-30T17:54:59;12.40;99.90
51655;DHT22;37732;53.106;7.030;2022-09-30T17:57:25;12.40;99.90
51655;DHT22;37732;53.106;7.030;2022-09-30T17:59:52;12.40;99.90
51655;DHT22;37732;53.106;7.030;2022-09-30T18:02:18;12.40;99.90
51655;DHT22;37732;53.106;7.030;2022-09-30T18:04:45;12.40;99.90
51655;DHT22;37732;53.106;7.030;2022-09-30T18:07:12;12.40;99.90
51655;DHT22;37732;53.106;7.030;2022-09-30T18:09:38;12.30;99.90
51655;DHT22;37732;53.106;7.030;2022-09-30T18:12:04;12.30;99.90
51655;DHT22;37732;53.106;7.030;2022-09-30T18:14:32;12.30;99.90
51655;DHT22;37732;53.106;7.030;2022-09-30T18:17:04;12.30;99.90
51655;DHT22;37732;53.106;7.030;2022-09-30T18:19:31;12.30;99.90
51655;DHT22;37732;53.106;7.030;2022-09-30T18:21:57;12.20;99.90
51655;DHT22;37732;53.106;7.030;2022-09-30T18:24:23;12.20;99.90
51655;DHT22;37732;53.106;7.030;2022-09-30T18:27:09;12.20;99.90
51655;DHT22;37732;53.106;7.030;2022-09-30T18:29:36;12.10;99.90
51655;DHT22;37732;53.106;7.030;2022-09-30T18:32:04;12.10;99.90
51655;DHT22;37732;53.106;7.030;2022-09-30T18:34:30;12.10;99.90
51655;DHT22;37732;53.106;7.030;2022-09-30T18:36:56;12.10;99.90
51655;DHT22;37732;53.106;7.030;2022-09-30T18:39:23;12.00;99.90
51655;DHT22;37732;53.106;7.030;2022-09-30T18:41:49;12.00;99.90
51655;DHT22;37732;53.106;7.030;2022-09-30T18:44:15;12.00;99.90
51655;DHT22;37732;53.106;7.030;2022-09-30T18:46:40;11.90;99.90
51655;DHT22;37732;53.106;7.030;2022-09-30T18:49:07;11.90;99.90
51655;DHT22;37732;53.106;7.030;2022-09-30T18:51:33;11.80;99.90
51655;DHT22;37732;53.106;7.030;2022-09-30T18:53:59;11.80;99.90
51655;DHT22;37732;53.106;7.030;2022-09-30T18:56:30;11.80;99.90
51655;DHT22;37732;53.106;7.030;2022-09-30T18:59:02;11.70;99.90
51655;DHT22;37732;53.106;7.030;2022-09-30T19:01:31;11.70;99.90
51655;DHT22;37732;53.106;7.030;2022-09-30T19:04:00;11.60;99.90
51655;DHT22;37732;53.106;7.030;2022-09-30T19:06:28;11.60;99.90
51655;DHT22;37732;53.106;7.030;2022-09-30T19:08:54;11.60;99.90
51655;DHT22;37732;53.106;7.030;2022-09-30T19:11:20;11.50;99.90
51655;DHT22;37732;53.106;7.030;2022-09-30T19:13:50;11.50;99.90
51655;DHT22;37732;53.106;7.030;2022-09-30T19:16:17;11.50;99.90
51655;DHT22;37732;53.106;7.030;2022-09-30T19:18:44;11.50;99.90
51655;DHT22;37732;53.106;7.030;2022-09-30T19:21:12;11.50;99.90
51655;DHT22;37732;53.106;7.030;2022-09-30T19:23:39;11.50;99.90
51655;DHT22;37732;53.106;7.030;2022-09-30T19:26:06;11.50;99.90
51655;DHT22;37732;53.106;7.030;2022-09-30T19:28:32;11.40;99.90
51655;DHT22;37732;53.106;7.030;2022-09-30T19:31:06;11.40;99.90
51655;DHT22;37732;53.106;7.030;2022-09-30T19:33:33;11.40;99.90
51655;DHT22;37732;53.106;7.030;2022-09-30T19:36:08;11.40;99.90
51655;DHT22;37732;53.106;7.030;2022-09-30T19:38:35;11.40;99.90
51655;DHT22;37732;53.106;7.030;2022-09-30T19:41:03;11.40;99.90
51655;DHT22;37732;53.106;7.030;2022-09-30T19:43:29;11.40;99.90
51655;DHT22;37732;53.106;7.030;2022-09-30T19:46:03;11.60;99.90
51655;DHT22;37732;53.106;7.030;2022-09-30T19:48:31;11.40;99.90
51655;DHT22;37732;53.106;7.030;2022-09-30T19:51:01;11.40;99.90
51655;DHT22;37732;53.106;7.030;2022-09-30T19:53:35;11.40;99.90
51655;DHT22;37732;53.106;7.030;2022-09-30T19:58:31;11.40;99.90
51655;DHT22;37732;53.106;7.030;2022-09-30T20:00:58;11.40;99.90